sensor_id;sensor_type;location;lat;lon;timestamp;pressure;altitude;pressure_sealevel;temperature;humidity
65718;BME280;52445;52.466;-1.016;2023-09-19T00:00:41;99099.22;;;12.45;68.70
65718;BME280;52445;52.466;-1.016;2023-09-19T00:03:09;99101.03;;;12.43;68.67
65718;BME280;52445;52.466;-1.016;2023-09-19T00:05:37;99104.50;;;12.42;68.27
65718;BME280;52445;52.466;-1.016;2023-09-19T00:08:05;99107.06;;;12.43;67.47
65718;BME280;52445;52.466;-1.016;2023-09-19T00:10:33;99101.03;;;12.43;67.63
65718;BME280;52445;52.466;-1.016;2023-09-19T00:13:03;99115.75;;;12.42;68.94
65718;BME280;52445;52.466;-1.016;2023-09-19T00:15:40;99116.63;;;12.43;69.07
65718;BME280;52445;52.466;-1.016;2023-09-19T00:18:07;99121.81;;;12.43;68.72
65718;BME280;52445;52.466;-1.016;2023-09-19T00:20:36;99114.06;;;12.41;68.69
65718;BME280;52445;52.466;-1.016;2023-09-19T00:23:04;99114.88;;;12.42;68.38
65718;BME280;52445;52.466;-1.016;2023-09-19T00:25:31;99119.22;;;12.43;68.71
65718;BME280;52445;52.466;-1.016;2023-09-19T00:27:59;99114.88;;;12.42;68.77
65718;BME280;52445;52.466;-1.016;2023-09-19T00:30:26;99118.38;;;12.41;68.83
65718;BME280;52445;52.466;-1.016;2023-09-19T00:32:53;99120.09;;;12.42;67.46
65718;BME280;52445;52.466;-1.016;2023-09-19T00:35:22;99116.69;;;12.40;67.72
65718;BME280;52445;52.466;-1.016;2023-09-19T00:37:51;99123.56;;;12.41;68.29
65718;BME280;52445;52.466;-1.016;2023-09-19T00:40:18;99121.00;;;12.39;68.92
65718;BME280;52445;52.466;-1.016;2023-09-19T00:42:46;99120.19;;;12.39;67.71
65718;BME280;52445;52.466;-1.016;2023-09-19T00:45:14;99121.94;;;12.37;67.68
65718;BME280;52445;52.466;-1.016;2023-09-19T00:47:43;99120.25;;;12.36;68.44
65718;BME280;52445;52.466;-1.016;2023-09-19T00:50:11;99126.31;;;12.34;68.46
65718;BME280;52445;52.466;-1.016;2023-09-19T00:52:42;99113.34;;;12.34;67.93
65718;BME280;52445;52.466;-1.016;2023-09-19T00:55:10;99118.63;;;12.31;68.51
65718;BME280;52445;52.466;-1.016;2023-09-19T00:57:40;99108.31;;;12.28;68.47
65718;BME280;52445;52.466;-1.016;2023-09-19T01:00:08;99113.50;;;12.28;67.44
65718;BME280;52445;52.466;-1.016;2023-09-19T01:02:38;99102.31;;;12.25;69.04
65718;BME280;52445;52.466;-1.016;2023-09-19T01:05:05;99108.44;;;12.22;68.22
65718;BME280;52445;52.466;-1.016;2023-09-19T01:07:32;99102.44;;;12.21;68.67
65718;BME280;52445;52.466;-1.016;2023-09-19T01:10:02;99103.34;;;12.19;67.68
65718;BME280;52445;52.466;-1.016;2023-09-19T01:32:08;99096.59;;;12.12;68.99
65718;BME280;52445;52.466;-1.016;2023-09-19T01:37:21;99116.50;;;12.11;67.99
65718;BME280;52445;52.466;-1.016;2023-09-19T01:39:55;99103.56;;;12.10;69.23
65718;BME280;52445;52.466;-1.016;2023-09-19T01:42:44;99110.59;;;12.04;68.74
65718;BME280;52445;52.466;-1.016;2023-09-19T01:50:32;99088.06;;;12.06;69.16
65718;BME280;52445;52.466;-1.016;2023-09-19T01:53:07;99086.34;;;12.05;67.97
65718;BME280;52445;52.466;-1.016;2023-09-19T01:55:41;99099.31;;;12.07;68.93
65718;BME280;52445;52.466;-1.016;2023-09-19T01:58:17;99094.16;;;12.04;68.71
65718;BME280;52445;52.466;-1.016;2023-09-19T02:00:49;99088.94;;;12.05;69.29
65718;BME280;52445;52.466;-1.016;2023-09-19T02:03:20;99096.72;;;12.05;68.68
65718;BME280;52445;52.466;-1.016;2023-09-19T02:05:50;99091.53;;;12.05;69.04
65718;BME280;52445;52.466;-1.016;2023-09-19T02:08:19;99082.88;;;12.06;68.55
65718;BME280;52445;52.466;-1.016;2023-09-19T02:10:46;99091.53;;;12.05;69.29
65718;BME280;52445;52.466;-1.016;2023-09-19T02:13:17;99098.44;;;12.06;69.60
65718;BME280;52445;52.466;-1.016;2023-09-19T02:15:44;99095.84;;;12.05;69.00
65718;BME280;52445;52.466;-1.016;2023-09-19T02:18:11;99100.22;;;12.06;68.40
65718;BME280;52445;52.466;-1.016;2023-09-19T02:20:39;99096.72;;;12.05;69.43
65718;BME280;52445;52.466;-1.016;2023-09-19T02:23:06;99101.91;;;12.05;68.53
65718;BME280;52445;52.466;-1.016;2023-09-19T02:25:34;99105.41;;;12.04;68.86
65718;BME280;52445;52.466;-1.016;2023-09-19T02:28:01;99095.88;;;12.03;69.07
65718;BME280;52445;52.466;-1.016;2023-09-19T02:30:29;99096.78;;;12.02;69.01
65718;BME280;52445;52.466;-1.016;2023-09-19T02:32:56;99092.53;;;12.00;68.65
65718;BME280;52445;52.466;-1.016;2023-09-19T02:35:23;99084.78;;;11.98;69.91
65718;BME280;52445;52.466;-1.016;2023-09-19T02:37:51;99083.91;;;11.98;69.06
65718;BME280;52445;52.466;-1.016;2023-09-19T02:40:18;99083.97;;;11.96;69.21
65718;BME280;52445;52.466;-1.016;2023-09-19T02:42:46;99082.25;;;11.95;69.62
65718;BME280;52445;52.466;-1.016;2023-09-19T02:45:16;99082.22;;;11.96;70.16
65718;BME280;52445;52.466;-1.016;2023-09-19T02:47:45;99077.00;;;11.98;69.51
65718;BME280;52445;52.466;-1.016;2023-09-19T02:50:12;99073.50;;;11.99;69.61
65718;BME280;52445;52.466;-1.016;2023-09-19T02:52:42;99063.88;;;12.04;70.04
65718;BME280;52445;52.466;-1.016;2023-09-19T02:55:12;99074.25;;;12.06;69.70
65718;BME280;52445;52.466;-1.016;2023-09-19T02:57:41;99071.53;;;12.11;69.77
65718;BME280;52445;52.466;-1.016;2023-09-19T03:00:12;99068.84;;;12.14;69.22
65718;BME280;52445;52.466;-1.016;2023-09-19T03:02:38;99068.78;;;12.17;69.40
65718;BME280;52445;52.466;-1.016;2023-09-19T03:05:08;99064.34;;;12.20;70.43
65718;BME280;52445;52.466;-1.016;2023-09-19T03:07:37;99068.94;;;12.11;70.68
65718;BME280;52445;52.466;-1.016;2023-09-19T03:10:06;99062.66;;;12.19;69.30
65718;BME280;52445;52.466;-1.016;2023-09-19T03:12:33;99049.56;;;12.24;70.41
65718;BME280;52445;52.466;-1.016;2023-09-19T03:15:01;99045.13;;;12.28;70.43
65718;BME280;52445;52.466;-1.016;2023-09-19T03:17:28;99042.56;;;12.26;70.80
65718;BME280;52445;52.466;-1.016;2023-09-19T03:19:55;99040.81;;;12.28;70.59
65718;BME280;52445;52.466;-1.016;2023-09-19T03:22:23;99027.81;;;12.28;70.20
65718;BME280;52445;52.466;-1.016;2023-09-19T03:24:51;99025.22;;;12.28;70.03
65718;BME280;52445;52.466;-1.016;2023-09-19T03:27:18;99015.63;;;12.30;70.32
65718;BME280;52445;52.466;-1.016;2023-09-19T03:29:47;99026.84;;;12.32;71.19
65718;BME280;52445;52.466;-1.016;2023-09-19T03:32:13;99024.19;;;12.36;69.99
65718;BME280;52445;52.466;-1.016;2023-09-19T03:34:40;99018.09;;;12.37;70.34
65718;BME280;52445;52.466;-1.016;2023-09-19T03:37:09;99021.41;;;12.42;70.84
65718;BME280;52445;52.466;-1.016;2023-09-19T03:39:36;99017.06;;;12.42;71.52
65718;BME280;52445;52.466;-1.016;2023-09-19T03:42:03;99014.34;;;12.47;70.30
65718;BME280;52445;52.466;-1.016;2023-09-19T03:44:30;99015.13;;;12.51;71.22
65718;BME280;52445;52.466;-1.016;2023-09-19T03:46:57;99007.28;;;12.52;70.65
65718;BME280;52445;52.466;-1.016;2023-09-19T03:49:24;99008.91;;;12.56;70.56
65718;BME280;52445;52.466;-1.016;2023-09-19T03:51:51;99000.19;;;12.57;71.87
65718;BME280;52445;52.466;-1.016;2023-09-19T03:54:18;99003.63;;;12.59;70.99
65718;BME280;52445;52.466;-1.016;2023-09-19T03:56:46;98999.22;;;12.62;71.95
65718;BME280;52445;52.466;-1.016;2023-09-19T03:59:12;99001.81;;;12.62;72.36
65718;BME280;52445;52.466;-1.016;2023-09-19T04:01:40;99010.41;;;12.65;71.67
65718;BME280;52445;52.466;-1.016;2023-09-19T04:04:07;99005.16;;;12.67;72.29
65718;BME280;52445;52.466;-1.016;2023-09-19T04:06:35;98991.28;;;12.68;72.37
65718;BME280;52445;52.466;-1.016;2023-09-19T04:09:03;98983.38;;;12.71;71.58
65718;BME280;52445;52.466;-1.016;2023-09-19T04:11:30;98978.19;;;12.71;72.99
65718;BME280;52445;52.466;-1.016;2023-09-19T04:13:57;98978.97;;;12.73;73.05
65718;BME280;52445;52.466;-1.016;2023-09-19T04:16:24;98978.94;;;12.75;72.52
65718;BME280;52445;52.466;-1.016;2023-09-19T04:18:51;98968.56;;;12.75;72.28
65718;BME280;52445;52.466;-1.016;2023-09-19T04:21:18;98969.34;;;12.78;72.83
65718;BME280;52445;52.466;-1.016;2023-09-19T04:23:45;98961.53;;;12.78;72.87
65718;BME280;52445;52.466;-1.016;2023-09-19T04:26:12;98959.72;;;12.80;72.39
65718;BME280;52445;52.466;-1.016;2023-09-19T04:28:39;98957.13;;;12.80;72.47
65718;BME280;52445;52.466;-1.016;2023-09-19T04:31:06;98957.00;;;12.85;72.32
65718;BME280;52445;52.466;-1.016;2023-09-19T04:33:35;98952.66;;;12.85;72.73
65718;BME280;52445;52.466;-1.016;2023-09-19T04:36:02;98947.34;;;12.89;72.30
65718;BME280;52445;52.466;-1.016;2023-09-19T04:38:50;98943.88;;;12.90;73.21
65718;BME280;52445;52.466;-1.016;2023-09-19T04:41:16;98941.28;;;12.90;72.13
65718;BME280;52445;52.466;-1.016;2023-09-19T04:43:43;98937.72;;;12.92;72.54
65718;BME280;52445;52.466;-1.016;2023-09-19T04:46:10;98933.38;;;12.93;72.84
65718;BME280;52445;52.466;-1.016;2023-09-19T04:48:37;98928.16;;;12.93;73.87
65718;BME280;52445;52.466;-1.016;2023-09-19T04:51:04;98939.34;;;12.96;72.65
65718;BME280;52445;52.466;-1.016;2023-09-19T04:53:31;98931.50;;;12.98;72.98
65718;BME280;52445;52.466;-1.016;2023-09-19T04:55:58;98928.84;;;13.00;73.39
65718;BME280;52445;52.466;-1.016;2023-09-19T04:58:24;98928.84;;;13.00;74.20
65718;BME280;52445;52.466;-1.016;2023-09-19T05:00:51;98927.91;;;13.02;73.33
65718;BME280;52445;52.466;-1.016;2023-09-19T05:03:18;98919.97;;;13.07;73.69
65718;BME280;52445;52.466;-1.016;2023-09-19T05:05:46;98914.69;;;13.08;74.28
65718;BME280;52445;52.466;-1.016;2023-09-19T05:08:14;98905.13;;;13.10;73.28
65718;BME280;52445;52.466;-1.016;2023-09-19T05:10:41;98899.06;;;13.10;74.01
65718;BME280;52445;52.466;-1.016;2023-09-19T05:13:08;98902.44;;;13.14;74.08
65718;BME280;52445;52.466;-1.016;2023-09-19T05:15:34;98894.53;;;13.17;73.63
65718;BME280;52445;52.466;-1.016;2023-09-19T05:18:02;98888.44;;;13.18;73.80
65718;BME280;52445;52.466;-1.016;2023-09-19T05:20:29;98884.00;;;13.20;73.84
65718;BME280;52445;52.466;-1.016;2023-09-19T05:23:01;98883.19;;;13.19;74.60
65718;BME280;52445;52.466;-1.016;2023-09-19T05:25:31;98880.41;;;13.24;74.05
65718;BME280;52445;52.466;-1.016;2023-09-19T05:27:58;98870.81;;;13.26;74.65
65718;BME280;52445;52.466;-1.016;2023-09-19T05:30:26;98856.03;;;13.28;74.65
65718;BME280;52445;52.466;-1.016;2023-09-19T05:32:54;98864.63;;;13.30;74.48
65718;BME280;52445;52.466;-1.016;2023-09-19T05:35:22;98866.44;;;13.28;75.01
65718;BME280;52445;52.466;-1.016;2023-09-19T05:37:50;98859.50;;;13.27;74.35
65718;BME280;52445;52.466;-1.016;2023-09-19T05:40:18;98869.81;;;13.30;74.80
65718;BME280;52445;52.466;-1.016;2023-09-19T05:42:46;98855.03;;;13.32;74.15
65718;BME280;52445;52.466;-1.016;2023-09-19T05:45:13;98849.94;;;13.29;75.08
65718;BME280;52445;52.466;-1.016;2023-09-19T05:47:40;98843.78;;;13.32;75.16
65718;BME280;52445;52.466;-1.016;2023-09-19T05:50:11;98840.22;;;13.34;74.93
65718;BME280;52445;52.466;-1.016;2023-09-19T05:52:38;98834.09;;;13.35;75.11
65718;BME280;52445;52.466;-1.016;2023-09-19T05:55:05;98826.31;;;13.35;74.66
65718;BME280;52445;52.466;-1.016;2023-09-19T05:57:34;98815.78;;;13.39;75.07
65718;BME280;52445;52.466;-1.016;2023-09-19T06:00:01;98806.34;;;13.36;74.72
65718;BME280;52445;52.466;-1.016;2023-09-19T06:02:28;98793.31;;;13.37;75.10
65718;BME280;52445;52.466;-1.016;2023-09-19T06:04:56;98805.34;;;13.40;75.01
65718;BME280;52445;52.466;-1.016;2023-09-19T06:07:23;98805.28;;;13.42;74.84
65718;BME280;52445;52.466;-1.016;2023-09-19T06:09:52;98779.19;;;13.45;74.96
65718;BME280;52445;52.466;-1.016;2023-09-19T06:12:20;98777.38;;;13.47;75.11
65718;BME280;52445;52.466;-1.016;2023-09-19T06:14:47;98780.72;;;13.52;74.28
65718;BME280;52445;52.466;-1.016;2023-09-19T06:17:15;98792.81;;;13.53;74.30
65718;BME280;52445;52.466;-1.016;2023-09-19T06:19:43;98787.50;;;13.56;74.89
65718;BME280;52445;52.466;-1.016;2023-09-19T06:22:15;98782.28;;;13.56;75.18
65718;BME280;52445;52.466;-1.016;2023-09-19T06:24:45;98775.28;;;13.58;74.87
65718;BME280;52445;52.466;-1.016;2023-09-19T06:27:13;98769.19;;;13.59;75.08
65718;BME280;52445;52.466;-1.016;2023-09-19T06:29:40;98766.44;;;13.62;75.36
65718;BME280;52445;52.466;-1.016;2023-09-19T06:32:08;98762.81;;;13.67;74.29
65718;BME280;52445;52.466;-1.016;2023-09-19T06:34:37;98766.97;;;13.72;74.82
65718;BME280;52445;52.466;-1.016;2023-09-19T06:37:05;98761.09;;;13.67;74.89
65718;BME280;52445;52.466;-1.016;2023-09-19T06:39:32;98757.34;;;13.74;75.32
65718;BME280;52445;52.466;-1.016;2023-09-19T06:41:59;98753.75;;;13.79;74.71
65718;BME280;52445;52.466;-1.016;2023-09-19T06:44:28;98756.19;;;13.83;75.45
65718;BME280;52445;52.466;-1.016;2023-09-19T06:46:56;98749.84;;;13.91;75.39
65718;BME280;52445;52.466;-1.016;2023-09-19T06:49:22;98756.63;;;13.95;74.81
65718;BME280;52445;52.466;-1.016;2023-09-19T06:51:49;98754.91;;;13.94;75.36
65718;BME280;52445;52.466;-1.016;2023-09-19T06:54:16;98739.06;;;14.00;75.35
65718;BME280;52445;52.466;-1.016;2023-09-19T06:56:44;98740.72;;;14.03;74.97
65718;BME280;52445;52.466;-1.016;2023-09-19T06:59:11;98737.13;;;14.05;74.72
65718;BME280;52445;52.466;-1.016;2023-09-19T07:01:41;98738.72;;;14.09;74.67
65718;BME280;52445;52.466;-1.016;2023-09-19T07:04:08;98731.59;;;14.14;75.33
65718;BME280;52445;52.466;-1.016;2023-09-19T07:06:35;98724.56;;;14.17;75.38
65718;BME280;52445;52.466;-1.016;2023-09-19T07:09:02;98720.09;;;14.20;74.42
65718;BME280;52445;52.466;-1.016;2023-09-19T07:11:29;98721.78;;;14.21;75.10
65718;BME280;52445;52.466;-1.016;2023-09-19T07:13:57;98719.97;;;14.23;74.86
65718;BME280;52445;52.466;-1.016;2023-09-19T07:16:24;98719.00;;;14.26;75.01
65718;BME280;52445;52.466;-1.016;2023-09-19T07:18:56;98720.81;;;14.24;75.27
65718;BME280;52445;52.466;-1.016;2023-09-19T07:21:24;98706.53;;;14.34;74.83
65718;BME280;52445;52.466;-1.016;2023-09-19T07:23:51;98709.78;;;14.39;74.87
65718;BME280;52445;52.466;-1.016;2023-09-19T07:26:18;98694.94;;;14.42;74.86
65718;BME280;52445;52.466;-1.016;2023-09-19T07:28:45;98694.03;;;14.43;75.00
65718;BME280;52445;52.466;-1.016;2023-09-19T07:31:12;98696.41;;;14.49;74.75
65718;BME280;52445;52.466;-1.016;2023-09-19T07:33:40;98698.78;;;14.53;74.36
65718;BME280;52445;52.466;-1.016;2023-09-19T07:36:09;98690.78;;;14.58;74.50
65718;BME280;52445;52.466;-1.016;2023-09-19T07:38:37;98692.50;;;14.59;74.66
65718;BME280;52445;52.466;-1.016;2023-09-19T07:41:04;98706.19;;;14.64;74.01
65718;BME280;52445;52.466;-1.016;2023-09-19T07:43:31;98689.63;;;14.65;74.11
65718;BME280;52445;52.466;-1.016;2023-09-19T07:46:05;98689.53;;;14.69;74.33
65718;BME280;52445;52.466;-1.016;2023-09-19T07:48:34;98699.78;;;14.72;74.25
65718;BME280;52445;52.466;-1.016;2023-09-19T07:51:03;98696.16;;;14.76;74.07
65718;BME280;52445;52.466;-1.016;2023-09-19T07:53:30;98688.22;;;14.79;74.00
65718;BME280;52445;52.466;-1.016;2023-09-19T07:56:05;98688.91;;;14.84;73.97
65718;BME280;52445;52.466;-1.016;2023-09-19T07:58:33;98689.59;;;14.88;74.38
65718;BME280;52445;52.466;-1.016;2023-09-19T08:01:05;98667.66;;;14.94;74.27
65718;BME280;52445;52.466;-1.016;2023-09-19T08:03:33;98676.25;;;14.96;73.87
65718;BME280;52445;52.466;-1.016;2023-09-19T08:06:01;98677.81;;;15.00;74.09
65718;BME280;52445;52.466;-1.016;2023-09-19T08:08:27;98682.75;;;15.06;74.00
65718;BME280;52445;52.466;-1.016;2023-09-19T08:10:55;98680.94;;;15.08;74.02
65718;BME280;52445;52.466;-1.016;2023-09-19T08:13:23;98684.19;;;15.13;73.60
65718;BME280;52445;52.466;-1.016;2023-09-19T08:15:50;98685.88;;;15.14;73.11
65718;BME280;52445;52.466;-1.016;2023-09-19T08:18:17;98664.06;;;15.17;73.79
65718;BME280;52445;52.466;-1.016;2023-09-19T08:20:50;98659.53;;;15.21;72.98
65718;BME280;52445;52.466;-1.016;2023-09-19T08:23:17;98669.72;;;15.27;73.43
65718;BME280;52445;52.466;-1.016;2023-09-19T08:25:47;98658.22;;;15.31;73.84
65718;BME280;52445;52.466;-1.016;2023-09-19T08:28:14;98650.25;;;15.34;73.46
65718;BME280;52445;52.466;-1.016;2023-09-19T08:30:45;98653.56;;;15.38;73.97
65718;BME280;52445;52.466;-1.016;2023-09-19T08:33:12;98645.47;;;15.44;73.44
65718;BME280;52445;52.466;-1.016;2023-09-19T08:35:41;98646.09;;;15.49;73.69
65718;BME280;52445;52.466;-1.016;2023-09-19T08:38:09;98635.59;;;15.51;74.12
65718;BME280;52445;52.466;-1.016;2023-09-19T08:40:38;98635.28;;;15.57;73.88
65718;BME280;52445;52.466;-1.016;2023-09-19T08:43:10;98637.00;;;15.58;73.93
65718;BME280;52445;52.466;-1.016;2023-09-19T08:45:37;98637.78;;;15.60;73.90
65718;BME280;52445;52.466;-1.016;2023-09-19T08:50:49;98627.59;;;15.73;73.42
65718;BME280;52445;52.466;-1.016;2023-09-19T08:53:21;98617.44;;;15.86;73.08
65718;BME280;52445;52.466;-1.016;2023-09-19T08:55:54;98622.38;;;15.92;72.69
65718;BME280;52445;52.466;-1.016;2023-09-19T08:58:26;98611.22;;;15.89;72.80
65718;BME280;52445;52.466;-1.016;2023-09-19T09:00:57;98631.03;;;15.93;72.75
65718;BME280;52445;52.466;-1.016;2023-09-19T09:03:32;98626.81;;;15.90;72.96
65718;BME280;52445;52.466;-1.016;2023-09-19T09:05:59;98620.66;;;15.91;72.84
65718;BME280;52445;52.466;-1.016;2023-09-19T09:08:26;98626.25;;;16.03;72.05
65718;BME280;52445;52.466;-1.016;2023-09-19T09:10:54;98620.75;;;16.09;72.12
65718;BME280;52445;52.466;-1.016;2023-09-19T09:13:21;98625.03;;;16.10;72.19
65718;BME280;52445;52.466;-1.016;2023-09-19T09:15:49;98627.13;;;16.21;72.65
65718;BME280;52445;52.466;-1.016;2023-09-19T09:18:17;98628.75;;;16.24;71.61
65718;BME280;52445;52.466;-1.016;2023-09-19T09:20:44;98636.59;;;16.24;71.94
65718;BME280;52445;52.466;-1.016;2023-09-19T09:23:11;98628.75;;;16.24;71.98
65718;BME280;52445;52.466;-1.016;2023-09-19T09:25:56;98627.03;;;16.23;71.79
65718;BME280;52445;52.466;-1.016;2023-09-19T09:28:24;98639.22;;;16.24;72.17
65718;BME280;52445;52.466;-1.016;2023-09-19T09:30:52;98625.06;;;16.28;71.87
65718;BME280;52445;52.466;-1.016;2023-09-19T09:33:19;98640.56;;;16.31;72.08
65718;BME280;52445;52.466;-1.016;2023-09-19T09:35:57;98636.06;;;16.35;71.93
65718;BME280;52445;52.466;-1.016;2023-09-19T09:38:27;98635.06;;;16.37;71.34
65718;BME280;52445;52.466;-1.016;2023-09-19T09:40:56;98647.03;;;16.41;71.27
65718;BME280;52445;52.466;-1.016;2023-09-19T09:43:40;98639.13;;;16.43;71.61
65718;BME280;52445;52.466;-1.016;2023-09-19T09:46:17;98639.00;;;16.46;71.33
65718;BME280;52445;52.466;-1.016;2023-09-19T09:51:36;98648.97;;;16.55;71.66
65718;BME280;52445;52.466;-1.016;2023-09-19T09:54:15;98657.75;;;16.54;71.13
65718;BME280;52445;52.466;-1.016;2023-09-19T10:02:29;98644.28;;;16.62;71.12
65718;BME280;52445;52.466;-1.016;2023-09-19T10:04:57;98646.13;;;16.60;71.54
65718;BME280;52445;52.466;-1.016;2023-09-19T10:07:29;98630.03;;;16.68;71.37
65718;BME280;52445;52.466;-1.016;2023-09-19T10:10:01;98635.06;;;16.73;71.37
65718;BME280;52445;52.466;-1.016;2023-09-19T10:12:33;98638.44;;;16.75;71.12
65718;BME280;52445;52.466;-1.016;2023-09-19T10:15:06;98634.91;;;16.76;70.89
65718;BME280;52445;52.466;-1.016;2023-09-19T10:17:35;98642.66;;;16.77;71.50
65718;BME280;52445;52.466;-1.016;2023-09-19T10:20:03;98635.50;;;16.81;71.30
65718;BME280;52445;52.466;-1.016;2023-09-19T10:22:46;98634.75;;;16.79;71.49
65718;BME280;52445;52.466;-1.016;2023-09-19T10:25:25;98641.34;;;16.86;71.08
65718;BME280;52445;52.466;-1.016;2023-09-19T10:27:56;98647.25;;;16.90;71.15
65718;BME280;52445;52.466;-1.016;2023-09-19T10:30:27;98627.00;;;16.93;71.67
65718;BME280;52445;52.466;-1.016;2023-09-19T10:33:04;98633.97;;;16.94;71.79
65718;BME280;52445;52.466;-1.016;2023-09-19T10:35:32;98619.44;;;17.05;71.73
65718;BME280;52445;52.466;-1.016;2023-09-19T10:38:01;98619.75;;;17.16;71.36
65718;BME280;52445;52.466;-1.016;2023-09-19T10:40:29;98625.47;;;17.25;71.19
65718;BME280;52445;52.466;-1.016;2023-09-19T10:43:05;98602.16;;;17.36;71.87
65718;BME280;52445;52.466;-1.016;2023-09-19T10:45:33;98618.31;;;17.44;71.40
65718;BME280;52445;52.466;-1.016;2023-09-19T10:48:01;98615.16;;;17.54;71.49
65718;BME280;52445;52.466;-1.016;2023-09-19T10:50:32;98613.34;;;17.56;70.89
65718;BME280;52445;52.466;-1.016;2023-09-19T10:53:03;98625.13;;;17.63;70.93
65718;BME280;52445;52.466;-1.016;2023-09-19T10:55:34;98623.13;;;17.68;70.25
65718;BME280;52445;52.466;-1.016;2023-09-19T10:58:03;98615.69;;;17.77;70.67
65718;BME280;52445;52.466;-1.016;2023-09-19T11:00:57;98629.19;;;17.85;71.09
65718;BME280;52445;52.466;-1.016;2023-09-19T11:03:29;98621.81;;;17.92;70.31
65718;BME280;52445;52.466;-1.016;2023-09-19T11:06:08;98620.81;;;17.94;70.22
65718;BME280;52445;52.466;-1.016;2023-09-19T11:11:42;98627.38;;;18.02;70.23
65718;BME280;52445;52.466;-1.016;2023-09-19T11:30:44;98640.59;;;18.16;70.81
65718;BME280;52445;52.466;-1.016;2023-09-19T11:36:06;98621.22;;;18.19;70.50
65718;BME280;52445;52.466;-1.016;2023-09-19T11:46:55;98635.13;;;18.66;70.01
65718;BME280;52445;52.466;-1.016;2023-09-19T11:52:04;98638.47;;;18.68;70.36
65718;BME280;52445;52.466;-1.016;2023-09-19T11:54:32;98621.44;;;18.75;70.13
65718;BME280;52445;52.466;-1.016;2023-09-19T11:57:00;98635.88;;;18.83;70.48
65718;BME280;52445;52.466;-1.016;2023-09-19T11:59:28;98630.84;;;18.94;70.54
65718;BME280;52445;52.466;-1.016;2023-09-19T12:01:59;98616.41;;;19.01;69.94
65718;BME280;52445;52.466;-1.016;2023-09-19T12:07:13;98629.22;;;19.08;70.14
65718;BME280;52445;52.466;-1.016;2023-09-19T12:09:43;98624.88;;;19.07;69.59
65718;BME280;52445;52.466;-1.016;2023-09-19T12:12:20;98622.44;;;19.04;70.16
65718;BME280;52445;52.466;-1.016;2023-09-19T12:14:49;98630.19;;;19.05;69.88
65718;BME280;52445;52.466;-1.016;2023-09-19T12:17:19;98630.88;;;19.09;69.68
65718;BME280;52445;52.466;-1.016;2023-09-19T12:19:50;98629.84;;;19.11;70.21
65718;BME280;52445;52.466;-1.016;2023-09-19T12:22:18;98632.56;;;19.10;70.33
65718;BME280;52445;52.466;-1.016;2023-09-19T12:24:47;98635.97;;;19.12;70.30
65718;BME280;52445;52.466;-1.016;2023-09-19T12:27:15;98638.38;;;19.15;70.22
65718;BME280;52445;52.466;-1.016;2023-09-19T12:32:33;98632.38;;;19.13;70.28
65718;BME280;52445;52.466;-1.016;2023-09-19T12:35:00;98643.84;;;19.12;70.72
65718;BME280;52445;52.466;-1.016;2023-09-19T12:37:34;98646.44;;;19.12;70.48
65718;BME280;52445;52.466;-1.016;2023-09-19T12:40:06;98635.75;;;19.15;70.94
65718;BME280;52445;52.466;-1.016;2023-09-19T12:42:56;98649.63;;;19.17;70.66
65718;BME280;52445;52.466;-1.016;2023-09-19T12:45:25;98651.50;;;19.15;70.83
65718;BME280;52445;52.466;-1.016;2023-09-19T12:48:28;98641.38;;;19.09;70.87
65718;BME280;52445;52.466;-1.016;2023-09-19T12:51:03;98647.19;;;19.14;70.54
65718;BME280;52445;52.466;-1.016;2023-09-19T12:53:36;98637.53;;;19.14;70.53
65718;BME280;52445;52.466;-1.016;2023-09-19T12:56:09;98646.44;;;19.12;70.79
65718;BME280;52445;52.466;-1.016;2023-09-19T12:58:53;98639.50;;;19.11;70.66
65718;BME280;52445;52.466;-1.016;2023-09-19T13:01:22;98643.06;;;19.10;70.35
65718;BME280;52445;52.466;-1.016;2023-09-19T13:04:18;98646.22;;;19.00;70.93
65718;BME280;52445;52.466;-1.016;2023-09-19T13:06:49;98642.34;;;19.08;70.64
65718;BME280;52445;52.466;-1.016;2023-09-19T13:09:19;98656.28;;;19.08;70.54
65718;BME280;52445;52.466;-1.016;2023-09-19T13:11:47;98647.66;;;19.06;70.79
65718;BME280;52445;52.466;-1.016;2023-09-19T13:14:22;98644.94;;;19.08;70.85
65718;BME280;52445;52.466;-1.016;2023-09-19T13:22:36;98631.94;;;19.06;70.78
65718;BME280;52445;52.466;-1.016;2023-09-19T13:25:07;98638.75;;;19.09;70.83
65718;BME280;52445;52.466;-1.016;2023-09-19T13:27:34;98644.56;;;19.14;70.50
65718;BME280;52445;52.466;-1.016;2023-09-19T13:30:01;98638.28;;;19.17;71.00
65718;BME280;52445;52.466;-1.016;2023-09-19T13:32:28;98634.06;;;19.14;70.57
65718;BME280;52445;52.466;-1.016;2023-09-19T13:34:55;98634.66;;;19.19;70.45
65718;BME280;52445;52.466;-1.016;2023-09-19T13:37:21;98644.94;;;19.22;70.46
65718;BME280;52445;52.466;-1.016;2023-09-19T13:39:48;98644.09;;;19.22;71.06
65718;BME280;52445;52.466;-1.016;2023-09-19T13:42:15;98634.25;;;19.25;70.79
65718;BME280;52445;52.466;-1.016;2023-09-19T13:44:43;98634.06;;;19.29;70.27
65718;BME280;52445;52.466;-1.016;2023-09-19T13:47:10;98632.09;;;19.32;70.43
65718;BME280;52445;52.466;-1.016;2023-09-19T13:49:39;98638.84;;;19.36;70.32
65718;BME280;52445;52.466;-1.016;2023-09-19T13:52:06;98642.41;;;19.35;70.26
65718;BME280;52445;52.466;-1.016;2023-09-19T13:54:33;98636.88;;;19.40;70.16
65718;BME280;52445;52.466;-1.016;2023-09-19T13:57:00;98635.94;;;19.41;70.11
65718;BME280;52445;52.466;-1.016;2023-09-19T13:59:27;98632.25;;;19.44;70.16
65718;BME280;52445;52.466;-1.016;2023-09-19T14:01:55;98649.63;;;19.46;70.39
65718;BME280;52445;52.466;-1.016;2023-09-19T14:04:22;98641.44;;;19.51;69.85
65718;BME280;52445;52.466;-1.016;2023-09-19T14:06:49;98626.00;;;19.46;69.59
65718;BME280;52445;52.466;-1.016;2023-09-19T14:09:15;98628.41;;;19.49;69.84
65718;BME280;52445;52.466;-1.016;2023-09-19T14:11:45;98624.47;;;19.57;69.67
65718;BME280;52445;52.466;-1.016;2023-09-19T14:14:14;98629.72;;;19.57;68.92
65718;BME280;52445;52.466;-1.016;2023-09-19T14:16:41;98625.94;;;19.61;69.39
65718;BME280;52445;52.466;-1.016;2023-09-19T14:19:08;98643.41;;;19.62;69.14
65718;BME280;52445;52.466;-1.016;2023-09-19T14:21:35;98642.84;;;19.57;69.13
65718;BME280;52445;52.466;-1.016;2023-09-19T14:24:03;98639.50;;;19.55;68.91